METAR Data
IDs: Format: Raw Decoded Include TAF

Data at: 0313 UTC 25 Feb 2021

EPLL 250300Z 09001KT 1400 R25/1900N BR NSC 01/01 Q1030